Time;durP1;ratioP1;P1;durP2;ratioP2;P2;SDS_P1;SDS_P2;PMS_P1;PMS_P2;Temp;Humidity;BMP_temperature;BMP_pressure;BME280_temperature;BME280_humidity;BME280_pressure;Samples;Min_cycle;Max_cycle;Signal;HPM_P1;HPM_P2
2022/02/22 07:53:27;;;;;;;10.87;1.77;;;6.40;99.90;;;;;;4943988;23;20241;-73
2022/02/22 07:55:56;;;;;;;10.53;1.87;;;6.70;99.90;;;;;;4999606;28;20203;-70
2022/02/22 07:58:23;;;;;;;18.43;1.87;;;6.80;99.90;;;;;;4993864;28;20214;-68
2022/02/22 08:00:50;;;;;;;10.60;1.47;;;7.00;99.90;;;;;;4993646;28;20234;-68
2022/02/22 08:03:16;;;;;;;14.33;1.57;;;7.20;99.90;;;;;;4993338;28;20210;-68
2022/02/22 08:05:43;;;;;;;7.23;1.53;;;7.50;99.90;;;;;;4992892;28;20214;-69
2022/02/22 08:08:11;;;;;;;12.47;1.40;;;7.50;99.90;;;;;;4983116;28;20286;-68
2022/02/22 08:10:39;;;;;;;8.57;1.30;;;7.60;99.90;;;;;;4972945;28;20345;-72
2022/02/22 08:13:06;;;;;;;7.97;1.10;;;7.50;99.90;;;;;;4990564;28;20226;-70
2022/02/22 08:15:32;;;;;;;9.83;1.40;;;7.40;99.90;;;;;;4991573;28;20202;-68
2022/02/22 08:17:59;;;;;;;7.20;1.70;;;7.40;99.90;;;;;;4993199;28;20657;-73
2022/02/22 08:20:26;;;;;;;11.10;1.73;;;7.50;99.90;;;;;;4993189;28;20222;-71
2022/02/22 08:22:53;;;;;;;13.90;1.57;;;7.50;99.90;;;;;;4993487;28;20288;-68
2022/02/22 08:25:20;;;;;;;8.27;1.33;;;7.50;99.90;;;;;;4993201;28;20207;-73
2022/02/22 08:27:48;;;;;;;10.97;1.37;;;7.60;99.90;;;;;;4995351;28;20202;-70
2022/02/22 08:30:15;;;;;;;8.63;1.97;;;7.70;99.90;;;;;;4980986;28;20219;-72
2022/02/22 08:32:42;;;;;;;8.93;1.23;;;7.70;99.90;;;;;;4987794;28;20199;-68
2022/02/22 08:35:09;;;;;;;14.27;1.90;;;7.60;99.90;;;;;;4977887;28;20555;-71
2022/02/22 08:37:36;;;;;;;8.40;1.67;;;7.50;99.90;;;;;;4979691;28;20662;-72
2022/02/22 08:40:03;;;;;;;7.90;1.10;;;7.50;99.90;;;;;;4977575;28;20235;-69
2022/02/22 08:42:30;;;;;;;5.63;1.40;;;7.50;99.90;;;;;;4977090;28;20207;-68
2022/02/22 08:44:58;;;;;;;9.30;1.93;;;7.40;99.90;;;;;;4977046;28;20211;-69
2022/02/22 08:47:25;;;;;;;16.00;2.30;;;7.40;99.90;;;;;;4988244;28;20217;-68
2022/02/22 08:49:52;;;;;;;9.70;2.30;;;7.40;99.90;;;;;;4977456;28;20709;-70
2022/02/22 08:52:19;;;;;;;16.53;1.87;;;7.50;99.90;;;;;;4976465;28;20211;-73
2022/02/22 08:54:46;;;;;;;9.73;2.03;;;7.60;99.90;;;;;;4976987;28;20239;-73
2022/02/22 08:57:13;;;;;;;15.40;2.33;;;7.70;99.90;;;;;;4977298;28;20258;-68
2022/02/22 08:59:39;;;;;;;14.63;1.87;;;7.80;99.90;;;;;;4978803;28;20719;-68
2022/02/22 09:02:08;;;;;;;14.67;1.87;;;8.00;99.90;;;;;;4980884;28;20221;-68
2022/02/22 09:04:35;;;;;;;13.87;1.97;;;8.20;99.90;;;;;;4995596;28;20211;-68
2022/02/22 09:07:02;;;;;;;9.80;1.93;;;8.40;99.90;;;;;;4996555;28;20210;-72
2022/02/22 09:09:28;;;;;;;9.37;1.70;;;8.50;99.90;;;;;;4996857;28;20258;-68
2022/02/22 09:11:56;;;;;;;24.47;2.47;;;8.50;99.90;;;;;;4996884;28;20212;-68
2022/02/22 09:14:23;;;;;;;7.60;1.60;;;8.60;99.90;;;;;;4996696;28;20344;-73
2022/02/22 09:16:50;;;;;;;6.87;1.53;;;8.60;99.90;;;;;;4996980;28;20213;-74
2022/02/22 09:19:18;;;;;;;17.63;2.57;;;8.60;99.90;;;;;;4996018;28;20228;-73
2022/02/22 09:21:45;;;;;;;17.43;2.37;;;8.60;99.90;;;;;;4996718;28;20214;-68
2022/02/22 09:24:11;;;;;;;10.27;1.97;;;8.60;99.90;;;;;;4996760;28;20202;-72
2022/02/22 09:26:38;;;;;;;10.80;1.60;;;8.70;99.90;;;;;;4996612;28;20214;-74
2022/02/22 09:29:05;;;;;;;12.27;1.63;;;8.70;99.90;;;;;;4996574;28;20241;-68
2022/02/22 09:31:32;;;;;;;14.43;2.30;;;8.70;99.90;;;;;;4996338;28;20213;-73
2022/02/22 09:33:59;;;;;;;11.97;1.77;;;8.70;99.90;;;;;;4996093;28;20230;-70
2022/02/22 09:36:27;;;;;;;7.17;1.63;;;8.80;99.90;;;;;;4995425;28;20557;-69
2022/02/22 09:38:54;;;;;;;12.13;2.07;;;8.70;99.90;;;;;;4995588;28;20250;-74
2022/02/22 09:41:20;;;;;;;10.20;1.60;;;8.80;99.90;;;;;;4996432;28;20665;-72
2022/02/22 09:43:47;;;;;;;19.20;1.93;;;8.90;99.90;;;;;;4996258;28;20220;-74
2022/02/22 09:46:15;;;;;;;9.33;1.57;;;9.10;99.90;;;;;;4996037;28;20569;-74
2022/02/22 09:48:42;;;;;;;11.37;1.73;;;9.10;99.90;;;;;;4996238;28;20207;-74
2022/02/22 09:51:09;;;;;;;14.43;1.90;;;9.30;99.90;;;;;;4996040;28;20205;-73
2022/02/22 09:53:38;;;;;;;16.23;2.30;;;9.50;99.90;;;;;;4995561;28;20237;-74
2022/02/22 09:56:06;;;;;;;18.10;1.97;;;9.60;99.90;;;;;;4996052;28;20207;-68
2022/02/22 09:58:33;;;;;;;14.73;1.77;;;9.80;99.90;;;;;;4995958;28;20653;-71
2022/02/22 10:01:01;;;;;;;19.33;1.90;;;9.80;99.90;;;;;;4996020;28;20207;-69
2022/02/22 10:03:28;;;;;;;7.97;1.47;;;9.80;99.90;;;;;;4995945;28;20203;-69
2022/02/22 10:05:57;;;;;;;13.17;2.43;;;10.00;99.90;;;;;;4995868;28;20209;-75
2022/02/22 10:08:30;;;;;;;13.60;1.80;;;9.90;99.90;;;;;;4995062;28;20199;-69
2022/02/22 10:11:06;;;;;;;14.00;2.53;;;9.70;99.90;;;;;;4995477;28;20223;-70
2022/02/22 10:13:33;;;;;;;15.17;1.80;;;9.50;99.90;;;;;;4995744;28;20234;-73
2022/02/22 10:16:04;;;;;;;9.37;2.83;;;9.40;99.90;;;;;;4996049;28;20209;-70
2022/02/22 10:18:31;;;;;;;17.50;2.40;;;9.30;99.90;;;;;;4995757;28;20211;-74
2022/02/22 10:20:58;;;;;;;10.07;1.67;;;9.00;99.90;;;;;;4995644;28;20257;-72
2022/02/22 10:23:30;;;;;;;14.97;3.20;;;8.80;99.90;;;;;;4995437;28;20217;-71
2022/02/22 10:25:58;;;;;;;16.03;2.70;;;8.70;99.90;;;;;;4994659;28;20203;-73
2022/02/22 10:28:28;;;;;;;10.57;2.17;;;8.70;99.90;;;;;;4995367;28;20213;-73
2022/02/22 10:30:55;;;;;;;12.03;2.30;;;8.70;99.90;;;;;;4995528;28;20234;-74
2022/02/22 10:33:23;;;;;;;15.17;3.07;;;8.80;99.90;;;;;;4995538;28;20218;-72
2022/02/22 10:35:52;;;;;;;20.97;3.53;;;8.80;99.90;;;;;;4995344;28;20657;-74
2022/02/22 10:38:21;;;;;;;13.43;3.10;;;8.60;99.90;;;;;;4995555;28;20657;-74
2022/02/22 10:41:01;;;;;;;12.70;2.77;;;8.70;99.90;;;;;;4994956;28;20222;-71
2022/02/22 10:43:30;;;;;;;12.47;2.07;;;8.60;99.90;;;;;;4994113;28;20293;-72
2022/02/22 10:45:59;;;;;;;15.70;2.90;;;8.60;99.90;;;;;;4994531;28;20229;-70
2022/02/22 10:48:34;;;;;;;17.60;2.97;;;8.60;99.90;;;;;;4993309;28;20198;-69
2022/02/22 10:51:02;;;;;;;15.73;2.70;;;8.60;99.90;;;;;;4993298;28;20665;-72
2022/02/22 10:53:31;;;;;;;10.17;2.63;;;8.50;99.90;;;;;;4994316;28;20772;-73
2022/02/22 10:55:59;;;;;;;19.10;2.83;;;8.40;99.90;;;;;;4994561;28;20203;-69
2022/02/22 10:58:27;;;;;;;12.03;2.40;;;8.40;99.90;;;;;;4993663;28;20569;-68
2022/02/22 11:00:55;;;;;;;15.90;2.50;;;8.40;99.90;;;;;;4994127;28;20704;-68
2022/02/22 11:03:22;;;;;;;31.80;6.17;;;8.40;99.90;;;;;;4993775;28;20214;-73
2022/02/22 11:05:50;;;;;;;12.67;1.97;;;8.30;99.90;;;;;;4994166;28;20225;-71
2022/02/22 11:08:27;;;;;;;55.37;13.23;;;8.40;99.90;;;;;;4994094;28;20684;-72
2022/02/22 11:10:59;;;;;;;18.67;4.33;;;8.40;99.90;;;;;;4994167;28;20226;-72
2022/02/22 11:13:27;;;;;;;12.90;2.40;;;8.40;99.90;;;;;;4994285;28;20584;-72
2022/02/22 11:15:56;;;;;;;13.13;2.73;;;8.50;99.90;;;;;;4994101;28;20240;-74
2022/02/22 11:18:24;;;;;;;12.10;2.20;;;8.60;99.90;;;;;;4993650;28;20680;-74
2022/02/22 11:20:52;;;;;;;13.63;1.87;;;8.70;99.90;;;;;;4994428;28;20230;-74
2022/02/22 11:23:27;;;;;;;10.70;2.63;;;8.90;99.90;;;;;;4989428;28;20233;-73
2022/02/22 11:26:05;;;;;;;7.93;2.00;;;8.90;99.90;;;;;;4978834;28;20199;-73
2022/02/22 11:28:36;;;;;;;9.97;2.27;;;9.10;99.90;;;;;;4973760;28;20210;-73
2022/02/22 11:31:11;;;;;;;15.23;2.47;;;9.10;99.90;;;;;;4976847;28;20294;-73
2022/02/22 11:33:40;;;;;;;18.50;3.57;;;9.10;99.90;;;;;;4994786;28;20210;-67
2022/02/22 11:36:08;;;;;;;9.50;1.83;;;9.10;99.90;;;;;;4984832;28;20298;-73
2022/02/22 11:38:44;;;;;;;14.97;2.47;;;8.90;99.90;;;;;;4992390;28;20202;-71
2022/02/22 11:41:19;;;;;;;10.40;2.40;;;9.00;99.90;;;;;;4992896;28;20218;-68
2022/02/22 11:43:59;;;;;;;6.97;1.67;;;9.00;99.90;;;;;;4989356;28;20216;-72
2022/02/22 11:46:42;;;;;;;14.57;3.70;;;9.20;99.90;;;;;;4992925;28;20200;-68
2022/02/22 11:49:11;;;;;;;12.07;3.07;;;9.10;99.90;;;;;;4996096;28;20218;-73
2022/02/22 11:51:43;;;;;;;9.80;2.27;;;9.20;99.90;;;;;;4992988;28;20205;-71
2022/02/22 11:54:12;;;;;;;15.83;3.37;;;9.20;99.90;;;;;;4992845;28;20226;-73
2022/02/22 11:56:42;;;;;;;7.60;2.23;;;9.20;99.90;;;;;;4994211;28;20195;-74
2022/02/22 11:59:20;;;;;;;6.50;2.00;;;9.20;99.90;;;;;;5003955;28;20615;-72
2022/02/22 12:01:51;;;;;;;10.63;2.10;;;9.20;99.90;;;;;;4992773;28;20233;-72
2022/02/22 12:04:22;;;;;;;7.93;2.00;;;9.30;99.90;;;;;;4992507;28;20202;-74
2022/02/22 12:06:49;;;;;;;9.40;2.40;;;9.30;99.90;;;;;;4993014;28;20232;-74
2022/02/22 12:09:16;;;;;;;11.83;3.97;;;9.40;99.90;;;;;;4993081;28;20234;-74
2022/02/22 12:11:44;;;;;;;9.20;2.20;;;9.60;99.90;;;;;;4993374;28;20237;-74
2022/02/22 12:14:12;;;;;;;7.70;1.97;;;9.60;99.90;;;;;;4992894;28;20207;-72
2022/02/22 12:16:43;;;;;;;10.63;2.17;;;9.60;99.90;;;;;;4992361;28;20234;-68
2022/02/22 12:19:14;;;;;;;7.23;2.67;;;9.70;99.90;;;;;;4992713;28;20234;-73
2022/02/22 12:21:46;;;;;;;8.97;1.93;;;9.80;99.90;;;;;;4992080;28;20198;-69
2022/02/22 12:24:15;;;;;;;15.80;2.27;;;9.80;99.90;;;;;;4995918;28;20205;-73
2022/02/22 12:26:42;;;;;;;8.63;1.90;;;9.80;99.90;;;;;;4997851;28;20248;-73
2022/02/22 12:29:10;;;;;;;13.00;2.10;;;9.80;99.90;;;;;;4992130;28;20226;-75
2022/02/22 12:31:39;;;;;;;6.43;1.67;;;9.60;99.90;;;;;;4992896;28;20206;-73
2022/02/22 12:34:08;;;;;;;10.03;2.00;;;9.70;99.90;;;;;;4993634;28;20564;-74
2022/02/22 12:36:37;;;;;;;14.13;2.70;;;9.80;99.90;;;;;;5000910;28;20208;-72
2022/02/22 12:39:06;;;;;;;7.47;1.80;;;9.90;99.90;;;;;;5010266;28;20569;-73
2022/02/22 12:41:35;;;;;;;9.23;1.70;;;10.00;99.90;;;;;;4996941;28;20225;-74
2022/02/22 12:44:03;;;;;;;5.83;1.50;;;10.00;99.90;;;;;;4991264;28;20206;-72
2022/02/22 12:46:30;;;;;;;7.73;1.87;;;10.10;99.90;;;;;;4990351;28;20201;-71
2022/02/22 12:48:57;;;;;;;7.17;1.93;;;10.10;99.90;;;;;;4990340;28;21023;-68
2022/02/22 12:51:26;;;;;;;5.87;1.60;;;10.20;99.90;;;;;;5002224;28;20293;-73
2022/02/22 12:53:59;;;;;;;7.73;2.10;;;10.10;99.90;;;;;;4996765;28;20209;-73
2022/02/22 12:56:35;;;;;;;9.60;2.07;;;10.10;99.90;;;;;;4995816;28;20743;-72
2022/02/22 12:59:02;;;;;;;13.53;1.63;;;10.20;99.90;;;;;;4991831;28;20225;-67
2022/02/22 13:01:34;;;;;;;3.33;1.40;;;10.30;99.90;;;;;;4986588;28;20200;-67
2022/02/22 13:04:02;;;;;;;2.17;1.20;;;10.30;99.90;;;;;;4986268;28;20214;-70
2022/02/22 13:06:32;;;;;;;3.43;1.63;;;10.40;99.90;;;;;;4991966;28;20207;-68
2022/02/22 13:09:00;;;;;;;7.90;1.90;;;10.50;99.90;;;;;;4991769;28;20249;-67
2022/02/22 13:11:31;;;;;;;2.27;1.03;;;10.60;99.90;;;;;;4991835;28;20203;-67
2022/02/22 13:13:58;;;;;;;7.57;1.20;;;10.60;99.90;;;;;;4993588;28;20700;-68
2022/02/22 13:16:25;;;;;;;2.90;1.40;;;10.60;99.90;;;;;;4994645;28;20717;-68
2022/02/22 13:18:54;;;;;;;6.23;2.03;;;10.60;99.90;;;;;;4994174;28;20234;-68
2022/02/22 13:21:21;;;;;;;5.37;1.30;;;10.60;99.90;;;;;;5005965;28;20217;-69
2022/02/22 13:23:49;;;;;;;4.73;1.20;;;10.70;99.90;;;;;;4985990;28;20214;-71
2022/02/22 13:26:17;;;;;;;8.20;0.93;;;10.80;99.90;;;;;;4988289;28;20209;-70
2022/02/22 13:28:45;;;;;;;4.00;1.50;;;10.90;99.90;;;;;;4985525;28;20250;-67
2022/02/22 13:31:20;;;;;;;4.47;1.20;;;11.00;99.90;;;;;;4986697;28;20210;-69
2022/02/22 13:33:59;;;;;;;9.97;1.50;;;11.00;99.90;;;;;;4994588;28;20205;-70
2022/02/22 13:36:26;;;;;;;12.50;2.27;;;10.90;99.90;;;;;;5003435;28;20268;-68
2022/02/22 13:38:58;;;;;;;4.80;1.30;;;10.80;99.90;;;;;;4995482;28;20202;-70
2022/02/22 13:41:33;;;;;;;5.60;1.30;;;10.70;99.90;;;;;;4990916;28;20253;-72
2022/02/22 13:44:00;;;;;;;3.57;1.20;;;10.70;99.90;;;;;;4994451;28;20202;-70
2022/02/22 13:46:32;;;;;;;4.57;1.10;;;10.70;99.90;;;;;;4995122;28;20207;-68
2022/02/22 13:49:01;;;;;;;5.50;1.40;;;10.80;99.90;;;;;;4988652;28;20219;-69
2022/02/22 13:51:39;;;;;;;6.67;1.50;;;10.80;99.90;;;;;;4983388;28;20678;-69
2022/02/22 13:54:06;;;;;;;4.53;1.23;;;10.80;99.90;;;;;;4994957;28;20245;-69
2022/02/22 13:56:35;;;;;;;4.53;1.23;;;10.80;99.90;;;;;;4995692;28;20234;-68
2022/02/22 13:59:07;;;;;;;4.80;1.30;;;10.90;99.90;;;;;;4992473;28;20276;-67
2022/02/22 14:01:44;;;;;;;7.97;1.23;;;11.00;99.90;;;;;;4995444;28;20672;-68
2022/02/22 14:04:11;;;;;;;7.33;1.70;;;11.10;99.90;;;;;;4994027;28;20584;-68
2022/02/22 14:06:38;;;;;;;7.70;1.60;;;11.10;99.90;;;;;;4999611;28;20213;-66
2022/02/22 14:09:05;;;;;;;6.53;1.33;;;11.20;99.90;;;;;;5006610;28;20218;-67
2022/02/22 14:11:43;;;;;;;4.90;1.50;;;11.20;99.90;;;;;;4996853;28;20203;-67
2022/02/22 14:14:11;;;;;;;4.93;1.23;;;11.40;99.90;;;;;;4994231;28;20675;-70
2022/02/22 14:16:38;;;;;;;10.93;2.30;;;11.40;99.90;;;;;;5003176;28;20796;-68
2022/02/22 14:19:06;;;;;;;5.37;1.43;;;11.30;99.90;;;;;;4989308;28;20361;-67
2022/02/22 14:21:33;;;;;;;5.87;1.80;;;11.30;99.90;;;;;;4993261;28;20202;-66
2022/02/22 14:24:00;;;;;;;7.40;1.50;;;11.30;99.90;;;;;;4979170;28;20210;-68
2022/02/22 14:26:27;;;;;;;5.43;1.10;;;11.30;99.90;;;;;;4975521;28;20218;-69
2022/02/22 14:28:55;;;;;;;4.67;1.97;;;11.30;99.90;;;;;;4975415;28;20602;-70
2022/02/22 14:31:22;;;;;;;8.43;1.10;;;11.30;99.90;;;;;;4975474;28;20654;-68
2022/02/22 14:33:49;;;;;;;9.97;2.07;;;11.30;99.90;;;;;;4975368;28;20203;-68
2022/02/22 14:36:16;;;;;;;7.40;1.33;;;11.30;99.90;;;;;;4975334;28;20239;-69
2022/02/22 14:38:43;;;;;;;5.33;1.37;;;11.30;99.90;;;;;;4975126;28;20242;-68
2022/02/22 14:41:10;;;;;;;5.97;1.57;;;11.50;99.90;;;;;;4973931;28;20216;-69
2022/02/22 14:43:38;;;;;;;6.27;1.63;;;11.50;99.90;;;;;;4992472;28;20682;-69
2022/02/22 14:46:06;;;;;;;8.97;2.57;;;11.40;99.90;;;;;;4993554;28;20684;-68
2022/02/22 14:48:34;;;;;;;7.07;1.30;;;11.30;99.90;;;;;;4992825;28;20201;-69
2022/02/22 14:51:01;;;;;;;3.00;1.23;;;11.40;99.90;;;;;;4993646;28;20206;-70
2022/02/22 14:53:28;;;;;;;4.63;1.43;;;11.40;99.90;;;;;;4993224;28;20264;-70
2022/02/22 14:55:55;;;;;;;4.10;1.20;;;11.50;99.90;;;;;;4992912;28;20245;-73
2022/02/22 14:58:23;;;;;;;6.60;1.50;;;11.40;99.90;;;;;;4993302;28;20209;-69
2022/02/22 15:00:51;;;;;;;6.87;1.47;;;11.40;99.90;;;;;;4993406;28;20237;-68
2022/02/22 15:03:19;;;;;;;3.10;1.23;;;11.50;99.90;;;;;;4992958;28;20233;-69
2022/02/22 15:05:47;;;;;;;8.47;2.07;;;11.50;99.90;;;;;;4993240;28;20214;-70
2022/02/22 15:08:14;;;;;;;4.33;1.53;;;11.60;99.90;;;;;;4993440;28;20207;-69
2022/02/22 15:10:43;;;;;;;8.63;1.60;;;11.60;99.90;;;;;;4984946;28;20214;-70
2022/02/22 15:13:11;;;;;;;8.37;1.77;;;11.50;99.90;;;;;;4991997;28;20206;-71
2022/02/22 15:15:38;;;;;;;6.40;1.23;;;11.50;99.90;;;;;;4980454;28;20730;-67
2022/02/22 15:18:05;;;;;;;5.17;1.40;;;11.50;99.90;;;;;;4973321;28;20693;-68
2022/02/22 15:20:34;;;;;;;6.00;1.70;;;11.50;99.90;;;;;;4973517;28;20227;-68
2022/02/22 15:23:01;;;;;;;12.17;1.57;;;11.50;99.90;;;;;;4980411;28;20211;-71
2022/02/22 15:25:28;;;;;;;6.57;1.50;;;11.50;99.90;;;;;;4985056;28;20558;-69
2022/02/22 15:27:55;;;;;;;6.17;1.37;;;11.40;99.90;;;;;;4992061;28;20203;-69
2022/02/22 15:30:22;;;;;;;8.30;1.80;;;11.50;99.90;;;;;;4992253;28;20249;-71
2022/02/22 15:32:49;;;;;;;5.93;1.37;;;11.50;99.90;;;;;;4992984;28;20224;-71
2022/02/22 15:35:16;;;;;;;9.63;1.37;;;11.50;99.90;;;;;;4992189;28;20258;-69
2022/02/22 15:37:44;;;;;;;6.20;1.50;;;11.50;99.90;;;;;;4993557;28;20202;-80
2022/02/22 15:40:12;;;;;;;4.47;1.50;;;11.40;99.90;;;;;;4993988;28;20230;-71
2022/02/22 15:42:40;;;;;;;6.40;1.60;;;11.40;99.90;;;;;;4994015;28;20213;-72
2022/02/22 15:45:08;;;;;;;6.27;1.37;;;11.30;99.90;;;;;;4994115;28;20677;-69
2022/02/22 15:47:35;;;;;;;4.27;1.17;;;11.30;99.90;;;;;;4994001;28;20212;-70
2022/02/22 15:50:04;;;;;;;3.23;1.40;;;11.30;99.90;;;;;;4994008;28;20250;-70
2022/02/22 15:52:30;;;;;;;3.13;1.37;;;11.30;99.90;;;;;;4989178;28;20195;-72
2022/02/22 15:54:59;;;;;;;3.50;1.30;;;11.20;99.90;;;;;;4984726;28;20203;-80
2022/02/22 15:57:26;;;;;;;2.73;1.23;;;11.20;99.90;;;;;;4982682;28;20226;-72
2022/02/22 15:59:53;;;;;;;5.67;1.30;;;11.30;99.90;;;;;;4984404;28;20269;-71
2022/02/22 16:02:20;;;;;;;5.33;1.80;;;11.30;99.90;;;;;;4984563;28;20203;-67
2022/02/22 16:04:47;;;;;;;6.40;1.40;;;11.30;99.90;;;;;;4993427;28;20650;-70
2022/02/22 16:07:13;;;;;;;7.00;2.03;;;11.30;99.90;;;;;;4993459;28;20221;-68
2022/02/22 16:09:40;;;;;;;6.40;1.50;;;11.20;99.90;;;;;;4993347;28;20225;-71
2022/02/22 16:12:10;;;;;;;7.63;1.27;;;11.10;99.90;;;;;;4993118;28;20222;-70
2022/02/22 16:14:36;;;;;;;4.47;2.07;;;11.10;99.90;;;;;;4993378;28;20211;-73
2022/02/22 16:17:04;;;;;;;7.67;1.90;;;11.20;99.90;;;;;;4993440;28;20240;-73
2022/02/22 16:19:31;;;;;;;3.53;1.27;;;11.30;99.90;;;;;;4993431;28;20230;-70
2022/02/22 16:21:58;;;;;;;7.07;1.40;;;11.20;99.90;;;;;;4980089;28;20260;-71
2022/02/22 16:24:25;;;;;;;4.87;1.37;;;11.30;99.90;;;;;;4989853;28;20206;-73
2022/02/22 16:26:52;;;;;;;3.33;1.67;;;11.20;99.90;;;;;;4993627;28;20269;-73
2022/02/22 16:29:20;;;;;;;5.23;1.43;;;11.20;99.90;;;;;;4993684;28;20234;-75
2022/02/22 16:31:50;;;;;;;10.20;1.73;;;11.20;99.90;;;;;;4993103;28;20634;-71
2022/02/22 16:34:17;;;;;;;7.20;1.80;;;11.10;99.90;;;;;;4984694;28;20571;-71
2022/02/22 16:36:44;;;;;;;7.50;1.30;;;11.10;99.90;;;;;;4980211;28;20223;-70
2022/02/22 16:39:11;;;;;;;8.27;1.77;;;11.00;99.90;;;;;;4993306;28;20222;-69
2022/02/22 16:41:38;;;;;;;4.90;1.37;;;11.00;99.90;;;;;;4992958;28;20206;-69
2022/02/22 16:44:05;;;;;;;6.77;2.20;;;11.00;99.90;;;;;;4973837;28;20203;-69
2022/02/22 16:46:34;;;;;;;3.57;1.60;;;11.00;99.90;;;;;;4974119;28;20207;-70
2022/02/22 16:49:01;;;;;;;6.10;1.80;;;11.10;99.90;;;;;;4986550;28;20222;-78
2022/02/22 16:51:28;;;;;;;12.50;1.73;;;11.10;99.90;;;;;;4996606;28;20195;-69
2022/02/22 16:53:55;;;;;;;7.37;2.07;;;11.10;99.90;;;;;;4989497;28;20298;-68
2022/02/22 16:56:22;;;;;;;9.50;1.77;;;11.20;99.90;;;;;;4979516;28;20230;-69
2022/02/22 16:58:49;;;;;;;3.77;1.00;;;11.30;99.90;;;;;;4996168;28;20210;-69
2022/02/22 17:01:16;;;;;;;5.53;1.40;;;11.30;99.90;;;;;;4995984;28;20206;-70
2022/02/22 17:03:44;;;;;;;7.17;1.23;;;11.40;99.90;;;;;;4996919;28;20203;-70
2022/02/22 17:06:11;;;;;;;5.70;1.07;;;11.40;99.90;;;;;;4996868;28;20216;-68
2022/02/22 17:08:38;;;;;;;6.13;0.90;;;11.30;99.90;;;;;;4996780;28;20210;-68
2022/02/22 17:11:05;;;;;;;5.60;1.30;;;11.30;99.90;;;;;;4997164;28;20289;-70
2022/02/22 17:13:32;;;;;;;6.07;1.30;;;11.20;99.90;;;;;;4996399;28;20213;-69
2022/02/22 17:16:02;;;;;;;5.93;1.50;;;11.20;99.90;;;;;;5005650;28;20722;-72
2022/02/22 17:18:31;;;;;;;7.63;1.20;;;11.10;99.90;;;;;;5016169;28;20659;-71
2022/02/22 17:20:59;;;;;;;6.80;0.80;;;11.10;99.90;;;;;;5015708;28;20317;-70
2022/02/22 17:23:26;;;;;;;9.90;2.27;;;11.20;99.90;;;;;;4997754;28;20683;-72
2022/02/22 17:25:54;;;;;;;10.53;1.27;;;11.20;99.90;;;;;;4995054;28;20210;-70
2022/02/22 17:28:21;;;;;;;5.03;1.43;;;11.20;99.90;;;;;;4996164;28;20207;-69
2022/02/22 17:30:47;;;;;;;7.97;1.53;;;11.20;99.90;;;;;;4995792;28;20230;-72
2022/02/22 17:33:14;;;;;;;4.73;1.60;;;11.30;99.90;;;;;;4995555;28;20202;-71
2022/02/22 17:35:41;;;;;;;6.97;1.10;;;11.30;99.90;;;;;;4995163;28;20213;-72
2022/02/22 17:38:09;;;;;;;6.23;2.20;;;11.40;99.90;;;;;;4995520;28;20206;-73
2022/02/22 17:40:38;;;;;;;4.73;1.27;;;11.40;99.90;;;;;;4994978;28;20241;-73
2022/02/22 17:43:05;;;;;;;9.93;1.27;;;11.40;99.90;;;;;;4995095;28;20704;-71
2022/02/22 17:45:32;;;;;;;11.20;1.83;;;11.40;99.90;;;;;;4994296;28;20202;-76
2022/02/22 17:47:59;;;;;;;10.67;1.80;;;11.50;99.90;;;;;;4994841;28;20210;-69
2022/02/22 17:50:27;;;;;;;2.60;1.10;;;11.50;99.90;;;;;;4995345;28;20226;-70
2022/02/22 17:52:54;;;;;;;9.07;1.40;;;11.60;99.90;;;;;;4994978;28;20261;-70
2022/02/22 17:55:23;;;;;;;9.23;1.57;;;11.60;99.90;;;;;;4994930;28;20211;-69
2022/02/22 17:57:51;;;;;;;11.03;1.93;;;11.60;99.90;;;;;;5009180;28;20232;-74
2022/02/22 18:00:19;;;;;;;8.87;1.60;;;11.50;99.90;;;;;;5014374;28;20257;-70
2022/02/22 18:02:45;;;;;;;8.90;1.27;;;11.30;99.90;;;;;;5002229;28;20669;-69
2022/02/22 18:05:15;;;;;;;12.87;2.00;;;11.20;99.90;;;;;;4995494;28;20296;-71
2022/02/22 18:07:43;;;;;;;8.60;1.37;;;11.30;99.90;;;;;;4995622;28;20216;-70
2022/02/22 18:10:11;;;;;;;9.07;1.73;;;11.20;99.90;;;;;;4995121;28;20737;-70
2022/02/22 18:12:39;;;;;;;10.00;1.57;;;11.20;99.90;;;;;;4994766;28;20209;-71
2022/02/22 18:15:07;;;;;;;7.03;1.80;;;11.10;99.90;;;;;;4994613;28;20599;-72
2022/02/22 18:17:33;;;;;;;6.00;1.67;;;11.00;99.90;;;;;;4994286;28;20696;-68
2022/02/22 18:20:00;;;;;;;10.97;1.60;;;10.90;99.90;;;;;;4994790;28;20249;-69
2022/02/22 18:22:27;;;;;;;8.10;1.60;;;10.90;99.90;;;;;;4994179;28;20306;-70
2022/02/22 18:24:54;;;;;;;11.77;1.50;;;10.90;99.90;;;;;;4994758;28;20203;-79
2022/02/22 18:27:21;;;;;;;5.80;1.73;;;10.90;99.90;;;;;;4994963;28;20644;-70
2022/02/22 18:29:49;;;;;;;3.97;1.60;;;10.90;99.90;;;;;;4992555;28;20238;-70
2022/02/22 18:32:16;;;;;;;7.93;1.30;;;10.90;99.90;;;;;;4993645;28;20207;-72
2022/02/22 18:34:42;;;;;;;4.83;2.13;;;10.90;99.90;;;;;;4993712;28;20217;-70
2022/02/22 18:37:11;;;;;;;9.40;1.50;;;10.90;99.90;;;;;;4994988;28;20249;-73
2022/02/22 18:39:39;;;;;;;8.87;2.50;;;11.00;99.90;;;;;;4994677;28;20317;-70
2022/02/22 18:42:06;;;;;;;8.23;1.53;;;11.00;99.90;;;;;;4994865;28;20657;-71
2022/02/22 18:44:33;;;;;;;10.87;2.00;;;11.10;99.90;;;;;;4994613;28;20209;-74
2022/02/22 18:47:01;;;;;;;9.03;1.97;;;11.10;99.90;;;;;;4994631;28;20557;-69
2022/02/22 18:49:28;;;;;;;7.97;1.03;;;11.10;99.90;;;;;;4994517;28;20233;-71
2022/02/22 18:51:57;;;;;;;6.50;2.00;;;11.10;99.90;;;;;;4994256;28;20210;-69
2022/02/22 18:54:24;;;;;;;5.40;1.13;;;10.90;99.90;;;;;;4994256;28;20241;-70
2022/02/22 18:56:52;;;;;;;5.40;1.63;;;10.70;99.90;;;;;;5001058;28;20229;-79
2022/02/22 18:59:19;;;;;;;7.50;1.77;;;10.50;99.90;;;;;;5013611;28;20225;-70
2022/02/22 19:01:45;;;;;;;4.50;0.80;;;10.50;99.90;;;;;;5003474;28;20215;-74
2022/02/22 19:04:14;;;;;;;6.90;1.70;;;10.40;99.90;;;;;;4986604;28;20211;-70
2022/02/22 19:06:40;;;;;;;3.57;1.07;;;10.40;99.90;;;;;;4981663;28;20572;-70
2022/02/22 19:09:07;;;;;;;14.67;5.33;;;10.40;99.90;;;;;;4982102;28;20234;-70
2022/02/22 19:11:35;;;;;;;8.67;2.77;;;10.40;99.90;;;;;;4977352;28;20213;-72
2022/02/22 19:14:03;;;;;;;18.07;5.60;;;10.40;99.90;;;;;;4993896;28;20636;-71
2022/02/22 19:16:32;;;;;;;5.27;1.90;;;10.40;99.90;;;;;;4993449;28;20244;-70
2022/02/22 19:18:59;;;;;;;6.87;1.30;;;10.50;99.90;;;;;;4993914;28;20261;-70
2022/02/22 19:21:28;;;;;;;16.03;4.20;;;10.40;99.90;;;;;;4993142;28;20202;-71
2022/02/22 19:23:55;;;;;;;23.17;7.50;;;10.40;99.90;;;;;;4993872;28;20657;-71
2022/02/22 19:26:22;;;;;;;18.77;4.93;;;10.50;99.90;;;;;;4994381;28;20210;-70
2022/02/22 19:28:50;;;;;;;7.40;2.13;;;10.50;99.90;;;;;;4994370;28;20293;-70
2022/02/22 19:31:18;;;;;;;10.43;2.67;;;10.50;99.90;;;;;;4993727;28;20216;-71
2022/02/22 19:33:44;;;;;;;12.00;2.90;;;10.50;99.90;;;;;;4994071;28;20282;-70
2022/02/22 19:36:11;;;;;;;7.17;1.27;;;10.50;99.90;;;;;;4993556;28;20202;-70
2022/02/22 19:38:40;;;;;;;16.50;5.93;;;10.60;99.90;;;;;;4993748;28;20735;-70
2022/02/22 19:41:06;;;;;;;3.73;1.77;;;10.60;99.90;;;;;;4994224;28;20202;-70
2022/02/22 19:43:34;;;;;;;13.90;3.50;;;10.50;99.90;;;;;;4993499;28;20214;-71
2022/02/22 19:46:01;;;;;;;6.07;1.80;;;10.50;99.90;;;;;;4993154;28;20234;-76
2022/02/22 19:48:28;;;;;;;4.57;1.70;;;10.60;99.90;;;;;;4993530;28;20206;-72
2022/02/22 19:50:54;;;;;;;11.17;2.33;;;10.60;99.90;;;;;;4993509;28;20322;-78
2022/02/22 19:53:21;;;;;;;5.57;2.20;;;10.70;99.90;;;;;;4993123;28;20214;-72
2022/02/22 19:55:49;;;;;;;12.90;4.17;;;10.70;99.90;;;;;;4993609;28;20210;-72
2022/02/22 19:58:17;;;;;;;4.53;1.77;;;10.70;99.90;;;;;;5011992;28;20716;-73
2022/02/22 20:00:44;;;;;;;25.97;6.37;;;10.80;99.90;;;;;;5012717;28;20240;-73
2022/02/22 20:03:11;;;;;;;7.53;1.70;;;10.80;99.90;;;;;;4996277;28;20202;-74
2022/02/22 20:05:38;;;;;;;20.90;6.90;;;10.80;99.90;;;;;;4993992;28;20207;-70
2022/02/22 20:08:05;;;;;;;7.53;2.93;;;10.80;99.90;;;;;;4993100;28;20212;-70
2022/02/22 20:10:32;;;;;;;4.87;1.07;;;10.80;99.90;;;;;;4992721;28;20235;-72
2022/02/22 20:13:00;;;;;;;2.03;1.17;;;10.70;99.90;;;;;;4993675;28;20570;-71
2022/02/22 20:15:27;;;;;;;9.70;1.50;;;10.70;99.90;;;;;;4993620;28;20236;-71
2022/02/22 20:17:54;;;;;;;12.43;2.00;;;10.70;99.90;;;;;;4993672;28;20334;-71
2022/02/22 20:20:21;;;;;;;4.87;1.37;;;10.80;99.90;;;;;;4993266;28;20226;-72
2022/02/22 20:22:48;;;;;;;8.63;1.70;;;10.70;99.90;;;;;;4993454;28;20297;-83
2022/02/22 20:25:15;;;;;;;6.93;1.73;;;10.70;99.90;;;;;;4993557;28;20212;-72
2022/02/22 20:27:43;;;;;;;10.63;1.50;;;10.70;99.90;;;;;;4993129;28;20206;-82
2022/02/22 20:30:12;;;;;;;3.80;1.10;;;10.60;99.90;;;;;;4993176;28;20254;-72
2022/02/22 20:32:39;;;;;;;3.90;1.53;;;10.50;99.90;;;;;;4993596;28;20207;-72
2022/02/22 20:35:06;;;;;;;7.40;1.30;;;10.60;99.90;;;;;;4993630;28;20569;-72
2022/02/22 20:37:33;;;;;;;6.03;1.47;;;10.50;99.90;;;;;;4993152;28;20747;-72
2022/02/22 20:40:00;;;;;;;5.10;1.40;;;10.50;99.90;;;;;;4993360;28;20234;-75
2022/02/22 20:42:27;;;;;;;7.40;2.23;;;10.40;99.90;;;;;;4992933;28;20205;-72
2022/02/22 20:44:54;;;;;;;5.80;1.23;;;10.40;99.90;;;;;;4993375;28;20329;-73